OISY  Yasouj Airport

Add Bookmark

Iran

Status
Operational
Latitude Longitude
30° 42' 1" N 51° 32' 42" E
30.700500 51.545101
Local (DST + 5) UTC (GMT + 4)
Nov 28, 2014 11:50 Nov 28, 2014 20:20
Sunrise-Sunset Local UTC
Begin Civil Twilight 06:13 02:43
Sunrise 06:39 03:09
Sunset 05:03 13:33
End Civil Twilight 05:29 13:59

Current Weather

METAR Observed VFR
OISY 282000Z 00000KT CAVOK 02/M02 Q1022 Fri, Nov 28, 2014 @ 20:00 UTC
(20 Minutes ago)
Visual Flight Rules
Wind Visibility Clouds Conditions
Calm 10 km or more
  • Clear skies
  • No significant weather
Temperatures Readings Precipitation
Current Temp 2°C (36°F)
Dewpoint -2°C (28°F)
Humidity 75%
Altimeter 30.18"Hg
Sea Level Pressure 1022mb
Field Elevation 5941.6'
None Recorded

24 Hour Weather History

Loading
-

24 Hour Weather Graphs

Loading
-

CheckWX.com is intended as a tool to help pilots better visualize weather data. It is not intended as a substitute for an official weather briefing obtained from a Flight Service Station. CheckWX.com does not meet the FAA requirements for an official pre-flight weather briefing. Therefore, it's important that pilots still call and obtain an official FSS pre-flight weather briefing.